Time;durP1;ratioP1;P1;durP2;ratioP2;P2;SDS_P1;SDS_P2;PMS_P1;PMS_P2;Temp;Humidity;BMP_temperature;BMP_pressure;BME280_temperature;BME280_humidity;BME280_pressure;Samples;Min_cycle;Max_cycle;Signal;HPM_P1;HPM_P2
2022/07/13 00:01:58;;;;;;;;;6.00;6.00;;;;;;;;5050478;28;51037;-74
2022/07/13 00:04:23;;;;;;;;;8.33;7.00;;;;;;;;5051346;28;51127;-74
2022/07/13 00:06:49;;;;;;;;;7.00;7.00;;;;;;;;5039520;28;51085;-74
2022/07/13 00:09:14;;;;;;;;;6.00;6.00;;;;;;;;5044248;28;52011;-73
2022/07/13 00:11:39;;;;;;;;;11.00;9.50;;;;;;;;5051948;28;50929;-74
2022/07/13 00:14:04;;;;;;;;;9.67;9.00;;;;;;;;5048387;28;51337;-74
2022/07/13 00:16:29;;;;;;;;;7.00;7.00;;;;;;;;5027555;28;51293;-74
2022/07/13 00:18:55;;;;;;;;;7.33;6.67;;;;;;;;5051175;28;51756;-74
2022/07/13 00:21:20;;;;;;;;;6.33;6.33;;;;;;;;5054915;28;51127;-75
2022/07/13 00:23:45;;;;;;;;;7.00;7.00;;;;;;;;5037844;28;51026;-75
2022/07/13 00:26:10;;;;;;;;;7.00;7.00;;;;;;;;5039334;28;51107;-74
2022/07/13 00:28:36;;;;;;;;;6.33;6.33;;;;;;;;5054761;28;51661;-74
2022/07/13 00:31:01;;;;;;;;;8.00;8.00;;;;;;;;5055301;28;51106;-74
2022/07/13 00:33:26;;;;;;;;;7.00;7.00;;;;;;;;5038795;28;51195;-74
2022/07/13 00:35:51;;;;;;;;;8.00;8.00;;;;;;;;5024045;28;51165;-73
2022/07/13 00:38:17;;;;;;;;;8.00;8.00;;;;;;;;5051841;28;51752;-74
2022/07/13 00:40:42;;;;;;;;;8.00;7.00;;;;;;;;5055126;28;51012;-74
2022/07/13 00:43:07;;;;;;;;;7.67;7.67;;;;;;;;5054289;28;51114;-75
2022/07/13 00:45:33;;;;;;;;;6.67;6.67;;;;;;;;5055436;28;51170;-74
2022/07/13 00:47:58;;;;;;;;;7.67;7.67;;;;;;;;5049713;28;51925;-75
2022/07/13 00:50:24;;;;;;;;;6.00;6.00;;;;;;;;5053850;28;51049;-74
2022/07/13 00:52:49;;;;;;;;;20.50;19.25;;;;;;;;5047075;28;51039;-74
2022/07/13 00:55:15;;;;;;;;;33.00;31.50;;;;;;;;5043755;28;51184;-74
2022/07/13 00:57:40;;;;;;;;;46.25;39.00;;;;;;;;5047202;28;50882;-75
2022/07/13 01:00:08;;;;;;;;;38.75;33.75;;;;;;;;5041745;28;50883;-74
2022/07/13 01:02:35;;;;;;;;;37.25;34.00;;;;;;;;5051076;28;50963;-74
2022/07/13 01:05:01;;;;;;;;;34.00;31.00;;;;;;;;5054637;28;51361;-74
2022/07/13 01:07:26;;;;;;;;;37.75;32.00;;;;;;;;5040343;28;52629;-74
2022/07/13 01:09:52;;;;;;;;;35.50;31.75;;;;;;;;5053194;28;51231;-73
2022/07/13 01:12:17;;;;;;;;;31.00;29.75;;;;;;;;5052833;28;51017;-74
2022/07/13 01:14:42;;;;;;;;;25.25;24.75;;;;;;;;5054688;28;51341;-74
2022/07/13 01:17:08;;;;;;;;;24.25;23.25;;;;;;;;5043536;28;51575;-74
2022/07/13 01:19:34;;;;;;;;;31.25;29.25;;;;;;;;5053292;28;51089;-74
2022/07/13 01:22:00;;;;;;;;;26.50;25.25;;;;;;;;5052727;28;51343;-74
2022/07/13 01:24:28;;;;;;;;;28.00;24.00;;;;;;;;5053397;28;51033;-74
2022/07/13 01:26:53;;;;;;;;;22.25;21.00;;;;;;;;5039005;28;51895;-75
2022/07/13 01:29:18;;;;;;;;;20.00;19.25;;;;;;;;5039501;28;51171;-74
2022/07/13 01:31:43;;;;;;;;;22.25;18.50;;;;;;;;5048409;28;51237;-74
2022/07/13 01:34:09;;;;;;;;;19.50;19.50;;;;;;;;5053295;28;51273;-74
2022/07/13 01:36:35;;;;;;;;;18.75;18.75;;;;;;;;5043121;28;51050;-74
2022/07/13 01:39:00;;;;;;;;;16.25;16.25;;;;;;;;5053544;28;51192;-75
2022/07/13 01:41:27;;;;;;;;;16.75;16.75;;;;;;;;5050648;28;51322;-74
2022/07/13 01:43:52;;;;;;;;;17.25;16.75;;;;;;;;5054307;28;51209;-74
2022/07/13 01:46:18;;;;;;;;;18.75;17.75;;;;;;;;5050283;28;51202;-74
2022/07/13 01:48:43;;;;;;;;;20.25;19.50;;;;;;;;5034260;28;51005;-74
2022/07/13 01:51:08;;;;;;;;;22.75;21.25;;;;;;;;5052346;28;51028;-75
2022/07/13 01:53:33;;;;;;;;;23.75;23.00;;;;;;;;5052473;28;50847;-73
2022/07/13 01:55:59;;;;;;;;;19.25;19.00;;;;;;;;5037325;28;51663;-74
2022/07/13 01:58:24;;;;;;;;;20.00;19.00;;;;;;;;5030137;28;51129;-74
2022/07/13 02:00:49;;;;;;;;;20.50;19.75;;;;;;;;5053545;28;51299;-75
2022/07/13 02:03:14;;;;;;;;;16.00;15.75;;;;;;;;5052324;28;51032;-75
2022/07/13 02:05:39;;;;;;;;;19.75;18.50;;;;;;;;5052274;28;51781;-74
2022/07/13 02:08:06;;;;;;;;;18.25;16.00;;;;;;;;5053337;28;51147;-76
2022/07/13 02:10:37;;;;;;;;;17.50;16.75;;;;;;;;5039250;28;51149;-75
2022/07/13 02:13:06;;;;;;;;;15.25;13.75;;;;;;;;5053068;28;51385;-74
2022/07/13 02:15:32;;;;;;;;;14.50;14.50;;;;;;;;5046392;28;51083;-75
2022/07/13 02:17:57;;;;;;;;;16.25;16.00;;;;;;;;5044189;28;51049;-75
2022/07/13 02:20:22;;;;;;;;;14.00;12.75;;;;;;;;5053354;28;50902;-74
2022/07/13 02:22:47;;;;;;;;;12.00;12.00;;;;;;;;5050604;28;51272;-75
2022/07/13 02:25:13;;;;;;;;;14.25;12.25;;;;;;;;5048368;28;51973;-75
2022/07/13 02:27:39;;;;;;;;;14.25;13.50;;;;;;;;5052793;28;51074;-75
2022/07/13 02:30:05;;;;;;;;;13.00;11.00;;;;;;;;5037801;28;50933;-76
2022/07/13 02:32:30;;;;;;;;;10.33;10.00;;;;;;;;5046145;28;51525;-75
2022/07/13 02:34:55;;;;;;;;;8.33;8.00;;;;;;;;5041972;28;52686;-75
2022/07/13 02:37:20;;;;;;;;;9.67;9.67;;;;;;;;5032900;28;51127;-75
2022/07/13 02:39:45;;;;;;;;;8.67;8.67;;;;;;;;5044952;28;51146;-74
2022/07/13 02:42:11;;;;;;;;;8.00;8.00;;;;;;;;5047132;28;51437;-74
2022/07/13 02:44:36;;;;;;;;;9.00;9.00;;;;;;;;5052044;28;51169;-76
2022/07/13 02:47:01;;;;;;;;;8.33;7.00;;;;;;;;5053035;28;51125;-74
2022/07/13 02:49:26;;;;;;;;;10.67;9.67;;;;;;;;5041291;28;50915;-75
2022/07/13 02:51:51;;;;;;;;;10.33;10.33;;;;;;;;5038305;28;51326;-74
2022/07/13 02:54:17;;;;;;;;;9.00;8.00;;;;;;;;5051216;28;51979;-74
2022/07/13 02:56:42;;;;;;;;;10.00;9.33;;;;;;;;5052538;28;51112;-74
2022/07/13 02:59:07;;;;;;;;;8.00;8.00;;;;;;;;5052059;28;50931;-74
2022/07/13 03:01:32;;;;;;;;;9.67;9.00;;;;;;;;5045812;28;51246;-74
2022/07/13 03:03:57;;;;;;;;;8.00;7.33;;;;;;;;5050429;28;52758;-75
2022/07/13 03:06:23;;;;;;;;;8.00;8.00;;;;;;;;5042737;28;51184;-74
2022/07/13 03:08:48;;;;;;;;;9.67;8.33;;;;;;;;5049755;28;51396;-74
2022/07/13 03:11:13;;;;;;;;;9.00;9.00;;;;;;;;5050741;28;51090;-74
2022/07/13 03:13:38;;;;;;;;;9.33;9.33;;;;;;;;5051956;28;51110;-75
2022/07/13 03:16:04;;;;;;;;;9.33;9.33;;;;;;;;5049537;28;51020;-74
2022/07/13 03:18:29;;;;;;;;;9.00;9.00;;;;;;;;5048417;28;51199;-75
2022/07/13 03:20:55;;;;;;;;;9.67;9.33;;;;;;;;5049425;28;51409;-75
2022/07/13 03:23:20;;;;;;;;;10.00;10.00;;;;;;;;5038087;28;51860;-74
2022/07/13 03:25:45;;;;;;;;;8.00;8.00;;;;;;;;5043468;28;51224;-73
2022/07/13 03:28:11;;;;;;;;;10.67;10.00;;;;;;;;5032902;28;51225;-74
2022/07/13 03:30:36;;;;;;;;;9.00;8.33;;;;;;;;5047010;28;51513;-74
2022/07/13 03:33:02;;;;;;;;;10.00;10.00;;;;;;;;5037440;28;51060;-73
2022/07/13 03:35:27;;;;;;;;;11.00;10.67;;;;;;;;5036403;28;52542;-75
2022/07/13 03:37:52;;;;;;;;;10.33;9.00;;;;;;;;5049293;28;51086;-74
2022/07/13 03:40:18;;;;;;;;;9.00;9.00;;;;;;;;5052403;28;51002;-74
2022/07/13 03:42:43;;;;;;;;;9.00;9.00;;;;;;;;5033524;28;51308;-74
2022/07/13 03:45:08;;;;;;;;;6.33;6.00;;;;;;;;5052232;28;50946;-74
2022/07/13 03:47:34;;;;;;;;;12.00;9.00;;;;;;;;5051783;28;51179;-75
2022/07/13 03:49:59;;;;;;;;;10.33;10.00;;;;;;;;5051261;28;50881;-74
2022/07/13 03:52:24;;;;;;;;;9.00;9.00;;;;;;;;5051143;28;51385;-76
2022/07/13 03:54:49;;;;;;;;;9.67;9.67;;;;;;;;5050410;28;51105;-75
2022/07/13 03:57:14;;;;;;;;;12.67;11.00;;;;;;;;5046388;28;51295;-74
2022/07/13 03:59:40;;;;;;;;;7.67;7.67;;;;;;;;5051879;28;51611;-75
2022/07/13 04:02:05;;;;;;;;;10.33;10.00;;;;;;;;5049325;28;52177;-75
2022/07/13 04:04:30;;;;;;;;;11.00;10.00;;;;;;;;5051515;28;50980;-75
2022/07/13 04:06:55;;;;;;;;;10.00;10.00;;;;;;;;5050248;28;51359;-75
2022/07/13 04:09:21;;;;;;;;;10.67;9.00;;;;;;;;5050682;28;51120;-75
2022/07/13 04:11:48;;;;;;;;;9.00;8.00;;;;;;;;5051091;28;51070;-74
2022/07/13 04:14:13;;;;;;;;;10.00;9.33;;;;;;;;5050875;28;51291;-75
2022/07/13 04:16:38;;;;;;;;;11.67;11.67;;;;;;;;5040996;28;51311;-75
2022/07/13 04:19:03;;;;;;;;;7.00;6.00;;;;;;;;5042347;28;53438;-75
2022/07/13 04:21:29;;;;;;;;;8.33;8.33;;;;;;;;5048900;28;52969;-76
2022/07/13 04:23:55;;;;;;;;;8.00;6.67;;;;;;;;5037302;28;51015;-75
2022/07/13 04:26:20;;;;;;;;;8.67;8.67;;;;;;;;5037114;28;50815;-74
2022/07/13 04:28:45;;;;;;;;;10.00;10.00;;;;;;;;5028761;28;51333;-74
2022/07/13 04:31:10;;;;;;;;;7.00;7.00;;;;;;;;5044534;28;51878;-74
2022/07/13 04:33:35;;;;;;;;;9.00;8.67;;;;;;;;5032731;28;51011;-73
2022/07/13 04:36:00;;;;;;;;;8.00;8.00;;;;;;;;5043170;28;50898;-74
2022/07/13 04:38:26;;;;;;;;;6.33;6.33;;;;;;;;5050615;28;50931;-73
2022/07/13 04:40:51;;;;;;;;;10.00;9.00;;;;;;;;5038167;28;52674;-74
2022/07/13 04:43:16;;;;;;;;;9.00;7.00;;;;;;;;5043497;28;50965;-74
2022/07/13 04:45:41;;;;;;;;;8.33;8.00;;;;;;;;5032187;28;51064;-74
2022/07/13 04:48:06;;;;;;;;;7.00;7.00;;;;;;;;5049164;28;51034;-74
2022/07/13 04:50:32;;;;;;;;;6.00;5.67;;;;;;;;5050534;28;52368;-73
2022/07/13 04:52:57;;;;;;;;;8.00;7.33;;;;;;;;5039986;28;51131;-73
2022/07/13 04:55:22;;;;;;;;;7.33;7.33;;;;;;;;5031289;28;51223;-74
2022/07/13 04:57:48;;;;;;;;;8.00;7.00;;;;;;;;5043585;28;51498;-73
2022/07/13 05:00:13;;;;;;;;;8.00;8.00;;;;;;;;5048427;28;52478;-75
2022/07/13 05:02:38;;;;;;;;;8.00;7.33;;;;;;;;5053401;28;51120;-74
2022/07/13 05:05:04;;;;;;;;;9.00;8.00;;;;;;;;5044852;28;51359;-75
2022/07/13 05:07:29;;;;;;;;;10.00;9.67;;;;;;;;5047610;28;51292;-74
2022/07/13 05:09:55;;;;;;;;;10.00;9.00;;;;;;;;5053715;28;51037;-75
2022/07/13 05:12:20;;;;;;;;;9.67;9.33;;;;;;;;5053406;28;51181;-75
2022/07/13 05:14:46;;;;;;;;;10.00;9.33;;;;;;;;5054725;28;51104;-75
2022/07/13 05:17:11;;;;;;;;;12.00;11.67;;;;;;;;5038953;28;51625;-74
2022/07/13 05:19:36;;;;;;;;;10.00;10.00;;;;;;;;5053109;28;52047;-74
2022/07/13 05:22:01;;;;;;;;;10.67;9.67;;;;;;;;5041603;28;50966;-75
2022/07/13 05:24:26;;;;;;;;;11.00;11.00;;;;;;;;5050005;28;51409;-73
2022/07/13 05:26:51;;;;;;;;;12.67;10.00;;;;;;;;5053909;28;51376;-73
2022/07/13 05:29:17;;;;;;;;;14.00;13.00;;;;;;;;5054588;28;52066;-75
2022/07/13 05:31:42;;;;;;;;;14.67;13.00;;;;;;;;5054415;28;51226;-74
2022/07/13 05:34:07;;;;;;;;;9.33;9.33;;;;;;;;5054770;28;50886;-74
2022/07/13 05:36:33;;;;;;;;;10.00;10.00;;;;;;;;5045006;28;51084;-76
2022/07/13 05:38:58;;;;;;;;;9.33;8.00;;;;;;;;5043088;28;51331;-76
2022/07/13 05:41:24;;;;;;;;;13.33;12.00;;;;;;;;5033813;28;51159;-75
2022/07/13 05:43:49;;;;;;;;;13.00;12.33;;;;;;;;5034409;28;50992;-74
2022/07/13 05:46:14;;;;;;;;;13.00;12.67;;;;;;;;5034031;28;50936;-75
2022/07/13 05:48:39;;;;;;;;;11.67;11.67;;;;;;;;5043456;28;51071;-76
2022/07/13 05:51:05;;;;;;;;;12.00;11.33;;;;;;;;5044729;28;51020;-75
2022/07/13 05:53:30;;;;;;;;;11.33;10.33;;;;;;;;5023440;28;51358;-76
2022/07/13 05:55:55;;;;;;;;;11.00;11.00;;;;;;;;5048167;28;51332;-75
2022/07/13 05:58:21;;;;;;;;;11.00;11.00;;;;;;;;5043844;28;51072;-75
2022/07/13 06:00:46;;;;;;;;;10.67;10.67;;;;;;;;5039926;28;51119;-74
2022/07/13 06:03:11;;;;;;;;;11.00;10.33;;;;;;;;5047274;28;51087;-74
2022/07/13 06:05:36;;;;;;;;;10.33;9.33;;;;;;;;5046875;28;51490;-75
2022/07/13 06:08:02;;;;;;;;;10.67;10.67;;;;;;;;5047774;28;51171;-74
2022/07/13 06:10:27;;;;;;;;;13.00;12.00;;;;;;;;5045994;28;50912;-73
2022/07/13 06:12:52;;;;;;;;;11.67;11.67;;;;;;;;5048544;28;51780;-75
2022/07/13 06:15:18;;;;;;;;;12.00;11.00;;;;;;;;5052082;28;50862;-74
2022/07/13 06:17:43;;;;;;;;;11.33;11.00;;;;;;;;5052602;28;51928;-75
2022/07/13 06:20:08;;;;;;;;;14.33;13.33;;;;;;;;5052953;28;51095;-75
2022/07/13 06:22:33;;;;;;;;;11.00;10.67;;;;;;;;5038264;28;51070;-74
2022/07/13 06:24:59;;;;;;;;;11.33;10.33;;;;;;;;5053329;28;51080;-76
2022/07/13 06:27:24;;;;;;;;;7.33;7.33;;;;;;;;5052834;28;51686;-75
2022/07/13 06:29:49;;;;;;;;;12.00;11.67;;;;;;;;5052333;28;51122;-75
2022/07/13 06:32:14;;;;;;;;;11.00;10.67;;;;;;;;5052672;28;50922;-75
2022/07/13 06:34:39;;;;;;;;;17.00;15.75;;;;;;;;5038668;28;51509;-75
2022/07/13 06:37:06;;;;;;;;;12.33;12.00;;;;;;;;5044970;28;52309;-76
2022/07/13 06:39:32;;;;;;;;;12.00;12.00;;;;;;;;5052384;28;51013;-74
2022/07/13 06:41:57;;;;;;;;;12.00;11.33;;;;;;;;5051949;28;50994;-76
2022/07/13 06:44:22;;;;;;;;;10.00;10.00;;;;;;;;5050721;28;51018;-75
2022/07/13 06:46:47;;;;;;;;;11.67;10.67;;;;;;;;5047341;28;51547;-75
2022/07/13 06:49:13;;;;;;;;;9.67;9.67;;;;;;;;5052524;28;50991;-74
2022/07/13 06:51:38;;;;;;;;;11.67;10.33;;;;;;;;5052387;28;50955;-74
2022/07/13 06:54:03;;;;;;;;;14.33;13.00;;;;;;;;5048830;28;51147;-76
2022/07/13 06:56:29;;;;;;;;;7.33;6.00;;;;;;;;5050047;28;51928;-78
2022/07/13 06:58:54;;;;;;;;;10.67;9.67;;;;;;;;5051843;28;51119;-78
2022/07/13 07:01:19;;;;;;;;;9.67;9.67;;;;;;;;5049453;28;51221;-76
2022/07/13 07:03:45;;;;;;;;;11.00;11.00;;;;;;;;5053103;28;51086;-76
2022/07/13 07:06:10;;;;;;;;;10.33;10.00;;;;;;;;5040838;28;51750;-76
2022/07/13 07:08:35;;;;;;;;;13.50;12.75;;;;;;;;5037461;28;50935;-75
2022/07/13 07:11:00;;;;;;;;;11.00;10.00;;;;;;;;5039057;28;51091;-76
2022/07/13 07:13:27;;;;;;;;;8.00;7.33;;;;;;;;5047652;28;51816;-77
2022/07/13 07:15:52;;;;;;;;;6.00;6.00;;;;;;;;5051122;28;51747;-76
2022/07/13 07:18:21;;;;;;;;;7.67;6.67;;;;;;;;5052049;28;51098;-75
2022/07/13 07:20:47;;;;;;;;;8.00;8.00;;;;;;;;5032067;28;51497;-77
2022/07/13 07:23:12;;;;;;;;;3.67;3.67;;;;;;;;5051259;28;50948;-77
2022/07/13 07:25:37;;;;;;;;;5.33;5.33;;;;;;;;5038843;28;51728;-77
2022/07/13 07:28:02;;;;;;;;;7.33;7.33;;;;;;;;5033060;28;51095;-75
2022/07/13 07:30:28;;;;;;;;;6.00;6.00;;;;;;;;5049190;28;51536;-76
2022/07/13 07:32:53;;;;;;;;;4.33;4.00;;;;;;;;5050513;28;51002;-76
2022/07/13 07:35:18;;;;;;;;;5.67;5.67;;;;;;;;5040285;28;52050;-76
2022/07/13 07:37:44;;;;;;;;;0.00;0.00;;;;;;;;5049864;28;51181;-77
2022/07/13 07:40:11;;;;;;;;;6.00;5.33;;;;;;;;5045605;28;51070;-78
2022/07/13 07:42:36;;;;;;;;;5.00;5.00;;;;;;;;5048278;28;51464;-75
2022/07/13 07:45:05;;;;;;;;;6.00;4.67;;;;;;;;5049419;28;51967;-76
2022/07/13 07:47:30;;;;;;;;;7.33;6.67;;;;;;;;5051821;28;51067;-75
2022/07/13 07:49:56;;;;;;;;;10.00;9.00;;;;;;;;5051392;28;51122;-75
2022/07/13 07:52:21;;;;;;;;;173.00;151.25;;;;;;;;5051635;28;51148;-75
2022/07/13 07:54:49;;;;;;;;;42.75;36.50;;;;;;;;5043690;28;52352;-77
2022/07/13 07:57:14;;;;;;;;;5.33;5.33;;;;;;;;5033130;28;51026;-74
2022/07/13 07:59:41;;;;;;;;;7.33;7.00;;;;;;;;5048432;28;51031;-77
2022/07/13 08:02:06;;;;;;;;;5.33;5.33;;;;;;;;5041049;28;51311;-74
2022/07/13 08:04:32;;;;;;;;;5.00;5.00;;;;;;;;5050092;28;51970;-75
2022/07/13 08:06:57;;;;;;;;;5.00;5.00;;;;;;;;5050528;28;51097;-75
2022/07/13 08:09:22;;;;;;;;;9.00;9.00;;;;;;;;5050310;28;51198;-75
2022/07/13 08:11:47;;;;;;;;;6.33;6.00;;;;;;;;5040407;28;50839;-76
2022/07/13 08:14:13;;;;;;;;;7.00;7.00;;;;;;;;5049009;28;51312;-75
2022/07/13 08:16:38;;;;;;;;;5.00;5.00;;;;;;;;5050560;28;50884;-76
2022/07/13 08:19:03;;;;;;;;;5.33;5.33;;;;;;;;5049577;28;51193;-75
2022/07/13 08:21:29;;;;;;;;;6.33;6.00;;;;;;;;5050735;28;51407;-75
2022/07/13 08:23:54;;;;;;;;;6.00;6.00;;;;;;;;5035436;28;50935;-77
2022/07/13 08:26:20;;;;;;;;;6.00;5.00;;;;;;;;5031340;28;50991;-77
2022/07/13 08:28:45;;;;;;;;;5.00;5.00;;;;;;;;5031400;28;51211;-77
2022/07/13 08:31:11;;;;;;;;;15.25;14.50;;;;;;;;5035316;28;51305;-76
2022/07/13 08:39:04;;;;;;;;;7.00;5.67;;;;;;;;5034867;28;50881;-78
2022/07/13 08:41:30;;;;;;;;;11.33;10.00;;;;;;;;5035622;28;51230;-76
2022/07/13 08:43:55;;;;;;;;;8.67;8.67;;;;;;;;5034491;28;52118;-77
2022/07/13 08:46:21;;;;;;;;;46.25;39.50;;;;;;;;5016408;28;51025;-77
2022/07/13 08:48:49;;;;;;;;;5.00;5.00;;;;;;;;5035161;28;51115;-77
2022/07/13 08:51:16;;;;;;;;;6.33;6.00;;;;;;;;5035430;28;52107;-75
2022/07/13 08:53:41;;;;;;;;;5.00;5.00;;;;;;;;5049557;28;51000;-76
2022/07/13 08:56:07;;;;;;;;;5.00;5.00;;;;;;;;5054467;28;51061;-76
2022/07/13 08:58:34;;;;;;;;;4.67;4.67;;;;;;;;5054828;28;51029;-77
2022/07/13 09:00:59;;;;;;;;;6.67;5.33;;;;;;;;5029419;28;51359;-77
2022/07/13 09:03:25;;;;;;;;;5.67;5.00;;;;;;;;5047701;28;51835;-77
2022/07/13 09:05:50;;;;;;;;;7.00;5.67;;;;;;;;5054513;28;51311;-77
2022/07/13 09:08:18;;;;;;;;;8.33;8.33;;;;;;;;5054626;28;50867;-77
2022/07/13 09:10:56;;;;;;;;;13.25;13.25;;;;;;;;5054264;28;51083;-75
2022/07/13 09:13:42;;;;;;;;;19.50;18.25;;;;;;;;5054107;28;52569;-77
2022/07/13 09:16:17;;;;;;;;;8.00;8.00;;;;;;;;5036016;28;51021;-78
2022/07/13 09:18:43;;;;;;;;;10.67;10.33;;;;;;;;5035782;28;50965;-77
2022/07/13 09:21:09;;;;;;;;;8.00;8.00;;;;;;;;5036399;28;51095;-75
2022/07/13 09:23:34;;;;;;;;;8.00;8.00;;;;;;;;5052775;28;52077;-78
2022/07/13 09:25:59;;;;;;;;;6.33;6.33;;;;;;;;5054200;28;50812;-78
2022/07/13 09:28:24;;;;;;;;;9.00;8.33;;;;;;;;5054083;28;50902;-77
2022/07/13 09:30:50;;;;;;;;;10.75;9.50;;;;;;;;5054472;28;51038;-78
2022/07/13 09:33:30;;;;;;;;;10.25;10.00;;;;;;;;5052902;28;51701;-77
2022/07/13 09:35:55;;;;;;;;;8.00;7.00;;;;;;;;5052904;28;50904;-78
2022/07/13 09:38:28;;;;;;;;;13.00;12.25;;;;;;;;5053699;28;51235;-77
2022/07/13 09:40:53;;;;;;;;;6.33;6.33;;;;;;;;5054217;28;50929;-77
2022/07/13 09:46:11;;;;;;;;;8.00;8.00;;;;;;;;5052938;28;51424;-76
2022/07/13 09:48:39;;;;;;;;;6.00;5.67;;;;;;;;5053530;28;51020;-78
2022/07/13 09:51:05;;;;;;;;;4.00;4.00;;;;;;;;5053843;28;50908;-77
2022/07/13 09:53:31;;;;;;;;;4.33;3.67;;;;;;;;5039555;28;51090;-77
2022/07/13 09:55:59;;;;;;;;;4.00;4.00;;;;;;;;5033602;28;50943;-77
2022/07/13 09:58:28;;;;;;;;;8.33;7.33;;;;;;;;5020329;28;51054;-76
2022/07/13 10:00:55;;;;;;;;;5.00;4.00;;;;;;;;5040164;28;51044;-78
2022/07/13 10:03:21;;;;;;;;;4.00;4.00;;;;;;;;5053011;28;50969;-78
2022/07/13 10:05:46;;;;;;;;;3.00;3.00;;;;;;;;5053865;28;51047;-78
2022/07/13 10:08:12;;;;;;;;;4.00;4.00;;;;;;;;5053137;28;51205;-78
2022/07/13 10:10:37;;;;;;;;;4.33;4.00;;;;;;;;5035472;28;51355;-78
2022/07/13 10:13:05;;;;;;;;;3.67;3.67;;;;;;;;5053480;28;51869;-77
2022/07/13 10:15:30;;;;;;;;;5.00;5.00;;;;;;;;5052315;28;51260;-76
2022/07/13 10:17:56;;;;;;;;;4.67;4.67;;;;;;;;5033829;28;50980;-77
2022/07/13 10:20:23;;;;;;;;;4.00;3.67;;;;;;;;5020510;28;51198;-78
2022/07/13 10:22:49;;;;;;;;;6.67;6.00;;;;;;;;5012929;28;51045;-77
2022/07/13 10:25:16;;;;;;;;;4.33;3.33;;;;;;;;5012813;28;51008;-78
2022/07/13 10:27:41;;;;;;;;;6.33;6.33;;;;;;;;5013201;28;51001;-76
2022/07/13 10:30:16;;;;;;;;;5.00;5.00;;;;;;;;5016330;28;51390;-77
2022/07/13 10:32:42;;;;;;;;;6.00;5.67;;;;;;;;5031362;28;52816;-78
2022/07/13 10:35:09;;;;;;;;;6.00;6.00;;;;;;;;5032633;28;50895;-77
2022/07/13 10:38:13;;;;;;;;;7.00;6.33;;;;;;;;5027364;28;51046;-77
2022/07/13 10:40:39;;;;;;;;;7.33;7.33;;;;;;;;4961625;28;51008;-76
2022/07/13 10:43:05;;;;;;;;;6.00;6.00;;;;;;;;4953447;28;53103;-77
2022/07/13 10:45:40;;;;;;;;;5.00;4.67;;;;;;;;4974565;28;51060;-78
2022/07/13 10:48:06;;;;;;;;;6.00;5.67;;;;;;;;5030802;28;50872;-76
2022/07/13 10:50:43;;;;;;;;;5.00;5.00;;;;;;;;5033055;28;51024;-77
2022/07/13 10:53:09;;;;;;;;;4.67;4.33;;;;;;;;5030402;28;51116;-78
2022/07/13 10:55:34;;;;;;;;;4.00;3.00;;;;;;;;5032016;28;51039;-78
2022/07/13 10:58:00;;;;;;;;;5.33;5.00;;;;;;;;5032412;28;51106;-78
2022/07/13 11:00:43;;;;;;;;;4.00;4.00;;;;;;;;5029498;28;51379;-78
2022/07/13 11:03:22;;;;;;;;;5.67;5.67;;;;;;;;5020553;28;51942;-77
2022/07/13 11:06:07;;;;;;;;;6.25;6.25;;;;;;;;5031305;28;50893;-76
2022/07/13 11:08:33;;;;;;;;;4.00;4.00;;;;;;;;5032289;28;51229;-79
2022/07/13 11:11:08;;;;;;;;;4.33;4.33;;;;;;;;5032991;28;51228;-77
2022/07/13 11:13:34;;;;;;;;;5.00;4.33;;;;;;;;5018164;28;52072;-77
2022/07/13 11:15:59;;;;;;;;;6.33;6.33;;;;;;;;5018101;28;50859;-77
2022/07/13 11:18:27;;;;;;;;;6.00;6.00;;;;;;;;5017376;28;51024;-76
2022/07/13 11:20:58;;;;;;;;;6.00;5.00;;;;;;;;5051309;28;51431;-75
2022/07/13 11:26:26;;;;;;;;;4.33;4.33;;;;;;;;5052468;28;51026;-76
2022/07/13 11:29:10;;;;;;;;;7.33;7.00;;;;;;;;5051759;28;50912;-77
2022/07/13 11:31:36;;;;;;;;;9.67;9.33;;;;;;;;5039181;28;51933;-77
2022/07/13 11:34:01;;;;;;;;;6.00;6.00;;;;;;;;5042859;28;51803;-76
2022/07/13 11:36:26;;;;;;;;;6.33;6.00;;;;;;;;5034646;28;51011;-77
2022/07/13 11:38:52;;;;;;;;;4.00;4.00;;;;;;;;5052438;28;51037;-77
2022/07/13 11:41:19;;;;;;;;;6.67;5.67;;;;;;;;5051325;28;50957;-77
2022/07/13 11:43:50;;;;;;;;;5.00;5.00;;;;;;;;5051963;28;51822;-78
2022/07/13 11:46:23;;;;;;;;;4.33;4.00;;;;;;;;5051801;28;51044;-75
2022/07/13 11:48:56;;;;;;;;;7.33;7.00;;;;;;;;5052230;28;51018;-77
2022/07/13 11:51:22;;;;;;;;;4.67;4.67;;;;;;;;5052326;28;51072;-76
2022/07/13 11:53:48;;;;;;;;;9.00;8.33;;;;;;;;5043805;28;51106;-78
2022/07/13 11:56:13;;;;;;;;;5.00;5.00;;;;;;;;5051282;28;51037;-76
2022/07/13 11:58:45;;;;;;;;;4.67;4.67;;;;;;;;5051770;28;51072;-77
2022/07/13 12:01:14;;;;;;;;;4.33;4.33;;;;;;;;5024901;28;51042;-76
2022/07/13 12:03:39;;;;;;;;;3.67;3.67;;;;;;;;5042647;28;51915;-76
2022/07/13 12:06:08;;;;;;;;;5.00;5.00;;;;;;;;5051650;28;50960;-75
2022/07/13 12:08:37;;;;;;;;;5.00;5.00;;;;;;;;5051479;28;50905;-76
2022/07/13 12:11:04;;;;;;;;;4.67;4.00;;;;;;;;5056326;28;50973;-77
2022/07/13 12:13:30;;;;;;;;;7.00;7.00;;;;;;;;5057910;28;51057;-75
2022/07/13 12:15:55;;;;;;;;;2.00;2.00;;;;;;;;5056025;28;51033;-77
2022/07/13 12:18:20;;;;;;;;;6.33;6.33;;;;;;;;5058079;28;51104;-76
2022/07/13 12:20:46;;;;;;;;;5.00;4.00;;;;;;;;5058490;28;50922;-78
2022/07/13 12:23:11;;;;;;;;;5.00;5.00;;;;;;;;5057709;28;51012;-77
2022/07/13 12:25:37;;;;;;;;;7.00;6.00;;;;;;;;5040154;28;50952;-76
2022/07/13 12:28:04;;;;;;;;;3.00;3.00;;;;;;;;5057546;28;51018;-76
2022/07/13 12:30:34;;;;;;;;;5.00;5.00;;;;;;;;5058249;28;51361;-75
2022/07/13 12:32:59;;;;;;;;;5.33;4.00;;;;;;;;5039846;28;51083;-76
2022/07/13 12:35:25;;;;;;;;;5.33;4.67;;;;;;;;5058160;28;50991;-76
2022/07/13 12:37:52;;;;;;;;;4.33;4.33;;;;;;;;5058118;28;50922;-75
2022/07/13 12:40:35;;;;;;;;;8.33;8.33;;;;;;;;5049737;28;51318;-76
2022/07/13 12:43:00;;;;;;;;;4.00;4.00;;;;;;;;5037257;28;52099;-74
2022/07/13 12:45:29;;;;;;;;;4.00;4.00;;;;;;;;5019813;28;51012;-76
2022/07/13 12:47:55;;;;;;;;;5.00;5.00;;;;;;;;5037891;28;51182;-76
2022/07/13 12:50:30;;;;;;;;;4.00;4.00;;;;;;;;5054952;28;50929;-77
2022/07/13 12:53:02;;;;;;;;;3.33;3.33;;;;;;;;5030591;28;53477;-76
2022/07/13 12:55:27;;;;;;;;;5.00;5.00;;;;;;;;5039229;28;51122;-75
2022/07/13 12:57:53;;;;;;;;;5.00;5.00;;;;;;;;5057874;28;51071;-74
2022/07/13 13:00:22;;;;;;;;;8.67;8.00;;;;;;;;5055454;28;50991;-75
2022/07/13 13:02:47;;;;;;;;;5.33;5.33;;;;;;;;5046291;28;51767;-76
2022/07/13 13:05:12;;;;;;;;;3.67;3.67;;;;;;;;5057954;28;51053;-76
2022/07/13 13:07:39;;;;;;;;;5.00;4.67;;;;;;;;5057913;28;51120;-76
2022/07/13 13:10:05;;;;;;;;;6.33;6.33;;;;;;;;5044159;28;53688;-75
2022/07/13 13:12:30;;;;;;;;;10.75;10.00;;;;;;;;5057334;28;51826;-75
2022/07/13 13:14:56;;;;;;;;;7.00;7.00;;;;;;;;5057987;28;51004;-74
2022/07/13 13:17:21;;;;;;;;;7.00;7.00;;;;;;;;5041104;28;51153;-74
2022/07/13 13:19:46;;;;;;;;;8.00;8.00;;;;;;;;5050460;28;51118;-74
2022/07/13 13:22:11;;;;;;;;;5.67;5.33;;;;;;;;5054683;28;52114;-76
2022/07/13 13:24:38;;;;;;;;;6.33;6.33;;;;;;;;5043643;28;51171;-75
2022/07/13 13:27:03;;;;;;;;;7.33;6.33;;;;;;;;5034253;28;51026;-76
2022/07/13 13:32:12;;;;;;;;;8.25;8.00;;;;;;;;5043199;28;51427;-75
2022/07/13 13:34:37;;;;;;;;;10.67;10.67;;;;;;;;5015703;28;50933;-74
2022/07/13 13:37:03;;;;;;;;;7.33;6.67;;;;;;;;5040001;28;51006;-75
2022/07/13 13:39:28;;;;;;;;;8.67;8.67;;;;;;;;5054181;28;51075;-75
2022/07/13 13:41:53;;;;;;;;;7.50;7.50;;;;;;;;5052722;28;52823;-75
2022/07/13 13:44:19;;;;;;;;;7.00;7.00;;;;;;;;5054125;28;51061;-75
2022/07/13 13:46:45;;;;;;;;;6.00;6.00;;;;;;;;5054135;28;50987;-75
2022/07/13 13:49:11;;;;;;;;;9.50;8.75;;;;;;;;5054182;28;51194;-75
2022/07/13 13:51:37;;;;;;;;;8.67;8.67;;;;;;;;5053390;28;51105;-76
2022/07/13 13:54:02;;;;;;;;;8.50;8.50;;;;;;;;5047167;28;51375;-75
2022/07/13 13:56:27;;;;;;;;;8.33;7.33;;;;;;;;5054075;28;50925;-75
2022/07/13 13:58:52;;;;;;;;;5.33;5.00;;;;;;;;5054275;28;51389;-75
2022/07/13 14:01:18;;;;;;;;;8.33;8.33;;;;;;;;5050506;28;52318;-76
2022/07/13 14:03:44;;;;;;;;;5.67;5.67;;;;;;;;5053645;28;51064;-76
2022/07/13 14:06:12;;;;;;;;;6.00;6.00;;;;;;;;5052679;28;50968;-75
2022/07/13 14:08:37;;;;;;;;;5.67;5.67;;;;;;;;5053283;28;51646;-75
2022/07/13 14:11:02;;;;;;;;;8.33;8.33;;;;;;;;5035056;28;54062;-76
2022/07/13 14:13:28;;;;;;;;;7.67;7.00;;;;;;;;5053643;28;51079;-75
2022/07/13 14:15:53;;;;;;;;;5.00;4.33;;;;;;;;5048778;28;50941;-75
2022/07/13 14:18:20;;;;;;;;;6.00;6.00;;;;;;;;5029712;28;51105;-75
2022/07/13 14:20:45;;;;;;;;;7.00;7.00;;;;;;;;5050420;28;51016;-74
2022/07/13 14:23:10;;;;;;;;;5.67;5.33;;;;;;;;5052806;28;51241;-74
2022/07/13 14:25:36;;;;;;;;;6.00;6.00;;;;;;;;5053335;28;51275;-75
2022/07/13 14:28:01;;;;;;;;;6.67;6.00;;;;;;;;5053683;28;51090;-75
2022/07/13 14:30:26;;;;;;;;;5.67;5.67;;;;;;;;5051747;28;51879;-76
2022/07/13 14:32:52;;;;;;;;;5.33;5.33;;;;;;;;5052948;28;50960;-76
2022/07/13 14:35:17;;;;;;;;;4.33;4.33;;;;;;;;5052444;28;51260;-75
2022/07/13 14:37:42;;;;;;;;;4.33;4.00;;;;;;;;5035370;28;51407;-75
2022/07/13 14:40:09;;;;;;;;;5.67;4.67;;;;;;;;5051705;28;51677;-75
2022/07/13 14:42:34;;;;;;;;;8.67;7.67;;;;;;;;5044821;28;50918;-76
2022/07/13 14:44:59;;;;;;;;;5.00;5.00;;;;;;;;5052977;28;51064;-76